Itasca, IL

16:14 CDT le 01 avril 2015 (GMT -0500)
Du Page | | Change Station
CLOSE
Current Station
Aéroport
Location: Chicago DuPage,
Altitude: 758 ft
Stations météo à proximité

Alt. 758 ft 41.90 °N, 88.25 °W | Updated 22 minutes ago

Partiellement nuageux
Partiellement nuageux
73 ° F
Paraît 73 ° F
N
15
Vent Variable Vent de Sud
Gusts 26 mph

Aujourd'hui
Haut(e) -- | Bas -- ° F
--% Risque de précip.
Hier
Haut(e) -- | Bas -- ° F
Precip. -- pouce
6:35 AM 7:17 PM
Lune gibbeuse croissante, 94% visible
Pression 29.90 pouce
Visibilité 10.0 Miles terrestres
Nuages Ciel dégagé
Point de rosée 36 ° F
Humidité 26%
Précipitations 0.00 pouce
Profondeur de la couche neigeuse Non disponible.
UV 4 sur 12
Pollen 7.30 sur 12
Qualité de l'air Non disponible.
Flu Activity Non disponible.
METAR KDPA 012052Z 19013G23KT 10SM CLR 23/02 A2990 RMK AO2 PK WND 19026/2037 SLP125 T02280022 56028 $

More Conditions Fewer Conditions

Pression 29.90 pouce
Visibilité 10.0 Miles terrestres
Nuages Ciel dégagé
Point de rosée 36 ° F
Humidité 26%
Précipitations 0.00 pouce
Profondeur de la couche neigeuse Non disponible.
UV 4 sur 12
Pollen 7.30 sur 12
Qualité de l'air Non disponible.
Flu Activity Non disponible.
METAR KDPA 012052Z 19013G23KT 10SM CLR 23/02 A2990 RMK AO2 PK WND 19026/2037 SLP125 T02280022 56028 $

More Conditions Fewer Conditions

10-Day Weather Forecast

Almanac

Astronomie

Apr. 01, 2015 Lever Coucher
Temps réel
Crépuscule civil
Crépuscule nautique
Crépuscule astronomique
Lune
Durée de lumière visible
Longueur du jour
Tomorrow will be .
, % of the Moon is Illuminated

Extrêmes aujourd'hui

State Highs State Lows

Community

WunderPhotos

Upload Photos

1,810,088 Photos téléchargées !

WunderBlogs® & News

Nearby

Qualité de l'air

  Qualité de l'air Indice de la qualité de l'air Polluant
Not available.

Épaisseur de neige

Station Depth Altitude

Activité sismique

Ville Distance Mag. Time & Date
Minimum magnitude displayed is 2.5.

Températures des eaux côtières

Lieu Température

Stations

Stations météo à proximité

Emplacement de la station Température Refroidissement éolien Point de rosée Humidité Vent Precip. Alt. Mise à jour Type